createdAt,value
2022-12-08T00:02:01.454Z,1.35
2022-12-08T00:04:27.943Z,0.90
2022-12-08T00:07:12.958Z,1.00
2022-12-08T00:09:41.749Z,1.15
2022-12-08T00:12:09.163Z,1.87
2022-12-08T00:14:38.591Z,1.48
2022-12-08T00:17:06.545Z,1.08
2022-12-08T00:19:33.790Z,0.93
2022-12-08T00:22:00.344Z,1.02
2022-12-08T00:24:32.070Z,0.90
2022-12-08T00:26:58.563Z,1.27
2022-12-08T00:29:24.975Z,0.93
2022-12-08T00:31:51.429Z,0.73
2022-12-08T00:34:18.113Z,0.93
2022-12-08T00:36:44.556Z,1.47
2022-12-08T00:39:12.310Z,1.17
2022-12-08T00:41:57.002Z,1.33
2022-12-08T00:44:23.478Z,1.35
2022-12-08T00:46:49.881Z,1.08
2022-12-08T00:49:17.300Z,1.80
2022-12-08T00:51:43.995Z,1.80
2022-12-08T00:54:11.045Z,1.70
2022-12-08T00:56:37.965Z,1.58
2022-12-08T00:59:06.997Z,1.08
2022-12-08T01:01:33.994Z,1.73
2022-12-08T01:04:09.001Z,1.65
2022-12-08T01:06:36.138Z,1.33
2022-12-08T01:09:05.331Z,1.27
2022-12-08T01:11:32.724Z,1.23
2022-12-08T01:13:59.366Z,1.70
2022-12-08T01:16:29.343Z,1.48
2022-12-08T01:18:57.465Z,1.73
2022-12-08T01:21:23.893Z,1.58
2022-12-08T01:23:50.396Z,1.30
2022-12-08T01:26:18.609Z,1.47
2022-12-08T01:28:45.997Z,1.60
2022-12-08T01:31:14.328Z,1.27
2022-12-08T01:33:40.974Z,1.58
2022-12-08T01:36:08.494Z,1.75
2022-12-08T01:38:34.826Z,1.30
2022-12-08T01:41:01.437Z,0.93
2022-12-08T01:43:50.854Z,1.15
2022-12-08T01:46:17.387Z,0.82
2022-12-08T01:48:43.862Z,1.20
2022-12-08T01:51:10.431Z,0.83
2022-12-08T01:53:36.980Z,0.93
2022-12-08T01:56:09.125Z,0.98
2022-12-08T01:58:39.865Z,0.93
2022-12-08T02:01:06.433Z,0.95
2022-12-08T02:04:00.270Z,0.53
2022-12-08T02:06:33.024Z,0.43
2022-12-08T02:09:01.418Z,0.70
2022-12-08T02:11:27.810Z,0.77
2022-12-08T02:16:57.443Z,0.60
2022-12-08T02:19:51.661Z,0.45
2022-12-08T02:22:30.221Z,0.63
2022-12-08T02:25:13.370Z,0.70
2022-12-08T02:27:50.561Z,0.90
2022-12-08T02:30:24.657Z,0.90
2022-12-08T02:33:18.432Z,1.08
2022-12-08T02:36:02.530Z,1.15
2022-12-08T02:38:40.918Z,1.25
2022-12-08T02:41:29.197Z,0.77
2022-12-08T02:44:06.317Z,1.17
2022-12-08T02:46:40.302Z,1.70
2022-12-08T02:49:07.569Z,0.77
2022-12-08T02:51:33.870Z,1.20
2022-12-08T02:54:02.100Z,1.52
2022-12-08T02:56:38.212Z,1.50
2022-12-08T02:59:17.412Z,1.20
2022-12-08T03:01:49.651Z,1.77
2022-12-08T03:04:57.390Z,1.33
2022-12-08T03:07:32.908Z,1.55
2022-12-08T03:10:12.222Z,1.63
2022-12-08T03:12:48.741Z,1.00
2022-12-08T03:15:18.441Z,1.30
2022-12-08T03:17:53.751Z,0.75
2022-12-08T03:20:23.239Z,1.00
2022-12-08T03:22:52.695Z,0.80
2022-12-08T03:25:22.650Z,0.82
2022-12-08T03:27:50.877Z,1.40
2022-12-08T03:30:17.840Z,1.20
2022-12-08T03:33:03.588Z,0.77
2022-12-08T03:35:33.109Z,0.50
2022-12-08T03:38:08.890Z,0.65
2022-12-08T03:40:35.507Z,0.60
2022-12-08T03:43:01.938Z,0.52
2022-12-08T03:45:28.431Z,0.20
2022-12-08T03:47:54.826Z,0.33
2022-12-08T03:50:21.266Z,0.15
2022-12-08T03:52:47.621Z,0.20
2022-12-08T03:55:14.478Z,0.15
2022-12-08T03:57:40.805Z,0.40
2022-12-08T04:00:09.085Z,0.30
2022-12-08T04:02:35.484Z,0.20
2022-12-08T04:05:01.840Z,0.00
2022-12-08T04:07:28.213Z,0.10
2022-12-08T04:09:54.593Z,0.10
2022-12-08T04:12:20.934Z,0.60
2022-12-08T04:14:47.330Z,0.10
2022-12-08T04:17:13.689Z,0.08
2022-12-08T04:19:40.929Z,0.10
2022-12-08T04:22:07.910Z,0.20
2022-12-08T04:24:34.455Z,0.10
2022-12-08T04:27:00.851Z,0.10
2022-12-08T04:29:27.216Z,0.10
2022-12-08T04:31:53.562Z,0.10
2022-12-08T04:34:19.891Z,0.00
2022-12-08T04:36:46.268Z,0.00
2022-12-08T04:39:12.609Z,0.10
2022-12-08T04:41:38.922Z,0.10
2022-12-08T04:44:05.247Z,0.10
2022-12-08T04:46:31.639Z,0.10
2022-12-08T04:48:58.073Z,0.10
2022-12-08T04:51:24.402Z,0.10
2022-12-08T04:53:50.888Z,0.25
2022-12-08T04:56:18.822Z,0.30
2022-12-08T04:58:45.623Z,0.30
2022-12-08T05:01:12.741Z,0.20
2022-12-08T05:03:39.273Z,0.40
2022-12-08T05:06:06.255Z,0.40
2022-12-08T05:08:33.138Z,0.40
2022-12-08T05:11:08.019Z,1.10
2022-12-08T05:13:34.457Z,0.20
2022-12-08T05:16:09.663Z,0.32
2022-12-08T05:18:37.485Z,0.30
2022-12-08T05:21:04.199Z,0.22
2022-12-08T05:23:31.142Z,0.30
2022-12-08T05:25:57.615Z,0.20
2022-12-08T05:31:15.302Z,0.10
2022-12-08T05:33:42.446Z,0.10
2022-12-08T05:36:10.308Z,0.10
2022-12-08T05:38:36.799Z,0.13
2022-12-08T05:41:03.539Z,0.22
2022-12-08T05:43:29.903Z,0.30
2022-12-08T05:45:56.333Z,0.10
2022-12-08T05:48:22.687Z,0.10
2022-12-08T05:50:50.084Z,0.30
2022-12-08T05:53:17.654Z,0.00
2022-12-08T05:55:44.727Z,0.10
2022-12-08T05:58:16.810Z,0.10
2022-12-08T06:00:43.475Z,0.17
2022-12-08T06:03:13.912Z,0.20
2022-12-08T06:05:42.258Z,0.10
2022-12-08T06:08:09.069Z,0.00
2022-12-08T06:10:35.566Z,0.10
2022-12-08T06:13:01.898Z,0.10
2022-12-08T06:15:28.266Z,0.00
2022-12-08T06:17:54.611Z,0.05
2022-12-08T06:20:21.015Z,0.10
2022-12-08T06:22:47.361Z,0.00
2022-12-08T06:25:13.702Z,0.22
2022-12-08T06:27:40.058Z,0.10
2022-12-08T06:30:07.294Z,0.00
2022-12-08T06:32:33.858Z,0.00
2022-12-08T06:35:00.272Z,0.40
2022-12-08T06:37:26.646Z,0.10
2022-12-08T06:39:52.984Z,0.10
2022-12-08T06:42:37.918Z,0.10
2022-12-08T06:45:04.707Z,0.00
2022-12-08T06:47:31.088Z,0.05
2022-12-08T06:49:57.489Z,0.00
2022-12-08T06:52:23.855Z,0.00
2022-12-08T06:54:50.343Z,0.03
2022-12-08T06:57:18.387Z,0.00
2022-12-08T06:59:44.869Z,0.00
2022-12-08T07:02:11.623Z,0.00
2022-12-08T07:04:38.052Z,0.00
2022-12-08T07:07:04.457Z,0.05
2022-12-08T07:09:30.851Z,0.00
2022-12-08T07:11:57.206Z,0.00
2022-12-08T07:14:24.775Z,0.00
2022-12-08T07:16:52.043Z,0.00
2022-12-08T07:19:18.647Z,0.10
2022-12-08T07:21:45.035Z,0.15
2022-12-08T07:24:11.614Z,0.20
2022-12-08T07:26:38.053Z,0.25
2022-12-08T07:29:04.460Z,0.10
2022-12-08T07:31:31.037Z,0.20
2022-12-08T07:33:57.693Z,0.30
2022-12-08T07:36:24.665Z,0.40
2022-12-08T07:38:53.198Z,0.20
2022-12-08T07:41:23.830Z,0.23
2022-12-08T07:43:50.770Z,0.57
2022-12-08T07:46:19.843Z,0.25
2022-12-08T07:48:47.145Z,0.30
2022-12-08T07:51:16.181Z,0.40
2022-12-08T07:53:47.190Z,0.33
2022-12-08T07:56:17.027Z,0.45
2022-12-08T07:58:45.824Z,0.20
2022-12-08T08:01:38.660Z,0.30
2022-12-08T08:04:05.552Z,0.45
2022-12-08T08:06:32.968Z,0.20
2022-12-08T08:08:59.729Z,0.30
2022-12-08T08:11:26.271Z,0.30
2022-12-08T08:13:52.926Z,0.22
2022-12-08T08:16:20.226Z,0.25
2022-12-08T08:18:49.044Z,0.40
2022-12-08T08:21:43.803Z,0.20
2022-12-08T08:24:02.598Z,0.75
2022-12-08T08:26:28.979Z,0.13
2022-12-08T08:28:55.368Z,0.20
2022-12-08T08:31:26.770Z,0.10
2022-12-08T08:33:53.798Z,0.10
2022-12-08T08:36:21.949Z,0.20
2022-12-08T08:38:48.290Z,0.15
2022-12-08T08:41:14.694Z,0.10
2022-12-08T08:43:41.025Z,0.43
2022-12-08T08:46:08.917Z,0.10
2022-12-08T08:48:35.653Z,0.10
2022-12-08T08:51:10.926Z,0.10
2022-12-08T08:53:37.501Z,0.10
2022-12-08T08:56:08.374Z,0.10
2022-12-08T08:58:34.714Z,0.03
2022-12-08T09:01:01.016Z,0.10
2022-12-08T09:03:27.415Z,0.10
2022-12-08T09:05:56.027Z,0.10
2022-12-08T09:08:23.604Z,0.00
2022-12-08T09:10:50.052Z,0.10
2022-12-08T09:13:16.558Z,0.10
2022-12-08T09:15:43.037Z,0.10
2022-12-08T09:18:10.778Z,0.00
2022-12-08T09:20:37.229Z,0.10
2022-12-08T09:23:03.660Z,0.10
2022-12-08T09:25:30.066Z,0.00
2022-12-08T09:27:56.466Z,0.45
2022-12-08T09:30:23.007Z,0.10
2022-12-08T09:32:49.379Z,0.10
2022-12-08T09:35:15.924Z,0.20
2022-12-08T09:37:42.302Z,0.00
2022-12-08T09:40:15.280Z,0.10
2022-12-08T09:42:52.016Z,0.10
2022-12-08T09:45:19.490Z,0.10
2022-12-08T09:47:57.846Z,0.00
2022-12-08T09:50:46.472Z,0.10
2022-12-08T09:53:18.525Z,0.10
2022-12-08T09:55:51.769Z,0.10
2022-12-08T09:58:45.213Z,0.10
2022-12-08T10:01:12.145Z,0.10
2022-12-08T10:03:38.556Z,0.10
2022-12-08T10:06:21.922Z,0.10
2022-12-08T10:09:25.134Z,0.10
2022-12-08T10:12:00.012Z,0.17
2022-12-08T10:14:47.044Z,0.30
2022-12-08T10:17:19.990Z,0.10
2022-12-08T10:19:48.189Z,0.00
2022-12-08T10:22:23.043Z,0.20
2022-12-08T10:25:05.105Z,0.10
2022-12-08T10:27:35.742Z,0.10
2022-12-08T10:30:02.972Z,0.10
2022-12-08T10:32:34.941Z,0.10
2022-12-08T10:35:06.451Z,0.10
2022-12-08T10:37:33.734Z,0.10
2022-12-08T10:40:06.389Z,0.10
2022-12-08T10:42:37.226Z,0.10
2022-12-08T10:45:09.842Z,0.10
2022-12-08T10:47:42.507Z,0.10
2022-12-08T10:50:23.429Z,0.10
2022-12-08T10:53:12.709Z,0.10
2022-12-08T10:55:40.834Z,0.10
2022-12-08T10:58:27.125Z,0.00
2022-12-08T11:01:12.342Z,0.00
2022-12-08T11:04:03.214Z,0.00
2022-12-08T11:06:35.691Z,0.10
2022-12-08T11:09:37.645Z,0.00
2022-12-08T11:12:13.471Z,0.00
2022-12-08T11:14:42.552Z,0.00
2022-12-08T11:17:13.142Z,0.00
2022-12-08T11:19:42.158Z,0.13
2022-12-08T11:22:30.091Z,0.00
2022-12-08T11:25:05.322Z,0.00
2022-12-08T11:27:34.096Z,0.00
2022-12-08T11:30:06.066Z,0.00
2022-12-08T11:32:34.585Z,0.00
2022-12-08T11:35:04.564Z,0.00
2022-12-08T11:37:49.017Z,0.00
2022-12-08T11:40:23.108Z,0.10
2022-12-08T11:43:16.680Z,0.00
2022-12-08T11:45:43.717Z,0.10
2022-12-08T11:48:34.974Z,0.15
2022-12-08T11:51:09.110Z,0.20
2022-12-08T11:53:43.837Z,0.20
2022-12-08T11:56:24.914Z,0.10
2022-12-08T11:58:57.749Z,0.30
2022-12-08T12:01:25.681Z,0.22
2022-12-08T12:04:00.445Z,0.20
2022-12-08T12:07:08.415Z,0.20
2022-12-08T12:09:46.814Z,0.10
2022-12-08T12:12:39.405Z,0.10
2022-12-08T12:15:28.337Z,0.10
2022-12-08T12:18:14.947Z,0.15
2022-12-08T12:21:10.689Z,0.00
2022-12-08T12:23:45.596Z,0.00
2022-12-08T12:26:22.232Z,0.00
2022-12-08T12:29:02.470Z,0.10
2022-12-08T12:31:36.574Z,0.00
2022-12-08T12:34:19.898Z,0.05
2022-12-08T12:36:58.673Z,0.00
2022-12-08T12:39:31.433Z,0.00
2022-12-08T12:42:01.403Z,0.00
2022-12-08T12:44:27.690Z,0.00
2022-12-08T12:47:00.483Z,0.00
2022-12-08T12:49:38.869Z,0.00
2022-12-08T12:52:23.584Z,0.00
2022-12-08T12:54:49.896Z,0.10
2022-12-08T12:57:23.212Z,0.10
2022-12-08T12:59:55.596Z,0.17
2022-12-08T13:02:36.709Z,0.20
2022-12-08T13:05:19.632Z,0.20
2022-12-08T13:08:00.714Z,0.20
2022-12-08T13:10:33.555Z,0.20
2022-12-08T13:13:05.976Z,0.30
2022-12-08T13:15:36.280Z,0.20
2022-12-08T13:18:03.071Z,0.38
2022-12-08T13:20:29.585Z,0.30
2022-12-08T13:23:33.223Z,0.30
2022-12-08T13:26:25.578Z,0.30
2022-12-08T13:29:04.080Z,0.20
2022-12-08T13:31:51.345Z,0.20
2022-12-08T13:34:27.153Z,0.20
2022-12-08T13:37:15.885Z,0.10
2022-12-08T13:39:49.562Z,0.10
2022-12-08T13:42:19.594Z,0.10
2022-12-08T13:45:39.745Z,0.10
2022-12-08T13:49:03.352Z,0.30
2022-12-08T13:55:00.706Z,0.10
2022-12-08T13:57:10.041Z,0.10
2022-12-08T13:59:44.167Z,0.20
2022-12-08T14:02:26.190Z,0.20
2022-12-08T14:07:41.024Z,0.25
2022-12-08T14:10:19.728Z,0.43
2022-12-08T14:12:51.853Z,0.52
2022-12-08T14:15:19.385Z,0.38
2022-12-08T14:17:54.223Z,0.28
2022-12-08T14:20:25.169Z,0.45
2022-12-08T14:22:52.759Z,0.57
2022-12-08T14:25:20.921Z,0.30
2022-12-08T14:27:48.466Z,0.40
2022-12-08T14:30:26.033Z,0.40
2022-12-08T14:33:01.077Z,0.32
2022-12-08T14:35:38.989Z,0.30
2022-12-08T14:38:13.967Z,0.77
2022-12-08T14:41:01.623Z,0.40
2022-12-08T14:43:29.961Z,0.50
2022-12-08T14:46:02.314Z,0.50
2022-12-08T14:48:31.539Z,0.40
2022-12-08T14:51:03.935Z,0.45
2022-12-08T14:53:37.309Z,0.45
2022-12-08T14:56:28.736Z,0.60
2022-12-08T14:59:04.192Z,0.80
2022-12-08T15:01:30.896Z,0.43
2022-12-08T15:04:13.192Z,0.65
2022-12-08T15:06:52.627Z,0.63
2022-12-08T15:09:38.931Z,0.40
2022-12-08T15:12:12.193Z,0.43
2022-12-08T15:14:42.489Z,0.70
2022-12-08T15:17:27.134Z,0.65
2022-12-08T15:19:58.236Z,0.70
2022-12-08T15:22:26.557Z,0.95
2022-12-08T15:24:54.208Z,1.00
2022-12-08T15:27:23.145Z,1.07
2022-12-08T15:29:50.051Z,0.80
2022-12-08T15:32:23.744Z,0.70
2022-12-08T15:34:50.496Z,0.63
2022-12-08T15:37:26.267Z,1.02
2022-12-08T15:39:52.988Z,1.13
2022-12-08T15:42:19.703Z,1.05
2022-12-08T15:44:46.274Z,1.25
2022-12-08T15:47:23.987Z,1.20
2022-12-08T15:49:52.831Z,0.95
2022-12-08T15:52:24.850Z,1.43
2022-12-08T15:54:51.359Z,1.75
2022-12-08T15:57:44.118Z,1.73
2022-12-08T16:00:50.362Z,1.77
2022-12-08T16:03:51.649Z,1.88
2022-12-08T16:06:57.515Z,1.57
2022-12-08T16:09:11.254Z,2.28
2022-12-08T16:12:06.458Z,1.45
2022-12-08T16:15:46.769Z,1.75
2022-12-08T16:17:21.243Z,2.17
2022-12-08T16:19:47.617Z,1.87
2022-12-08T16:25:21.504Z,1.90
2022-12-08T16:28:03.113Z,1.95
2022-12-08T16:30:35.194Z,2.50
2022-12-08T16:33:01.582Z,2.20
2022-12-08T16:35:27.992Z,2.10
2022-12-08T16:37:54.417Z,2.45
2022-12-08T16:40:20.970Z,1.95
2022-12-08T16:42:49.762Z,2.10
2022-12-08T16:45:18.725Z,1.90
2022-12-08T16:47:47.730Z,2.03
2022-12-08T16:50:26.750Z,1.90
2022-12-08T16:52:59.043Z,1.80
2022-12-08T16:55:25.805Z,1.98
2022-12-08T16:57:52.409Z,2.03
2022-12-08T17:00:22.000Z,2.13
2022-12-08T17:02:49.403Z,1.38
2022-12-08T17:05:18.833Z,1.90
2022-12-08T17:07:47.407Z,2.03
2022-12-08T17:10:16.614Z,1.70
2022-12-08T17:12:43.257Z,1.58
2022-12-08T17:15:14.957Z,1.80
2022-12-08T17:17:41.545Z,1.95
2022-12-08T17:20:16.182Z,1.92
2022-12-08T17:22:42.883Z,1.90
2022-12-08T17:25:09.381Z,1.40
2022-12-08T17:27:36.160Z,2.20
2022-12-08T17:30:02.697Z,2.10
2022-12-08T17:32:29.304Z,2.03
2022-12-08T17:34:55.690Z,1.83
2022-12-08T17:37:22.062Z,2.03
2022-12-08T17:39:48.421Z,1.55
2022-12-08T17:42:14.750Z,1.80
2022-12-08T17:44:41.150Z,1.58
2022-12-08T17:47:07.510Z,1.37
2022-12-08T17:49:33.996Z,2.13
2022-12-08T17:52:02.901Z,1.73
2022-12-08T17:54:29.623Z,2.67
2022-12-08T17:56:58.528Z,2.17
2022-12-08T17:59:26.027Z,1.30
2022-12-08T18:01:53.771Z,2.88
2022-12-08T18:04:20.825Z,2.25
2022-12-08T18:06:47.178Z,2.45
2022-12-08T18:09:15.059Z,3.70
2022-12-08T18:11:42.161Z,3.27
2022-12-08T18:14:09.987Z,2.60
2022-12-08T18:16:42.433Z,2.45
2022-12-08T18:19:09.720Z,2.38
2022-12-08T18:21:36.669Z,2.42
2022-12-08T18:24:03.503Z,2.70
2022-12-08T18:26:30.649Z,2.85
2022-12-08T18:28:57.645Z,3.10
2022-12-08T18:31:24.470Z,3.50
2022-12-08T18:33:51.726Z,2.72
2022-12-08T18:36:24.462Z,3.30
2022-12-08T18:38:52.281Z,3.63
2022-12-08T18:41:23.289Z,3.40
2022-12-08T18:43:49.746Z,4.10
2022-12-08T18:46:16.182Z,4.07
2022-12-08T18:48:45.795Z,3.50
2022-12-08T18:51:14.469Z,3.72
2022-12-08T18:53:41.342Z,3.25
2022-12-08T18:56:08.551Z,3.40
2022-12-08T18:58:35.211Z,3.22
2022-12-08T19:01:01.645Z,3.47
2022-12-08T19:03:28.045Z,3.88
2022-12-08T19:06:05.201Z,3.83
2022-12-08T19:08:31.922Z,3.55
2022-12-08T19:10:58.919Z,4.10
2022-12-08T19:13:25.754Z,4.60
2022-12-08T19:15:52.178Z,4.80
2022-12-08T19:18:18.563Z,5.45
2022-12-08T19:20:44.985Z,5.60
2022-12-08T19:23:15.401Z,6.20
2022-12-08T19:25:41.932Z,6.07
2022-12-08T19:28:08.305Z,6.95
2022-12-08T19:30:34.656Z,5.72
2022-12-08T19:33:01.080Z,6.15
2022-12-08T19:35:27.438Z,5.90
2022-12-08T19:37:55.001Z,5.70
2022-12-08T19:40:40.026Z,6.80
2022-12-08T19:43:33.931Z,6.57
2022-12-08T19:46:00.438Z,6.05
2022-12-08T19:48:26.891Z,5.85
2022-12-08T19:50:53.410Z,8.77
2022-12-08T19:53:20.755Z,6.25
2022-12-08T19:55:47.883Z,6.97
2022-12-08T19:58:14.294Z,7.90
2022-12-08T20:00:41.882Z,7.30
2022-12-08T20:03:10.193Z,7.13
2022-12-08T20:05:37.223Z,7.15
2022-12-08T20:08:04.048Z,7.28
2022-12-08T20:10:34.287Z,7.85
2022-12-08T20:13:19.589Z,8.75
2022-12-08T20:15:46.671Z,8.63
2022-12-08T20:18:14.868Z,8.23
2022-12-08T20:20:43.052Z,8.52
2022-12-08T20:23:09.792Z,8.43
2022-12-08T20:25:41.138Z,9.07
2022-12-08T20:28:08.140Z,7.20
2022-12-08T20:30:37.502Z,7.32
2022-12-08T20:33:04.060Z,7.68
2022-12-08T20:35:30.478Z,8.30
2022-12-08T20:37:56.825Z,8.18
2022-12-08T20:40:24.515Z,8.90
2022-12-08T20:42:50.853Z,8.38
2022-12-08T20:45:17.407Z,8.98
2022-12-08T20:47:43.820Z,8.85
2022-12-08T20:50:10.866Z,8.88
2022-12-08T20:52:37.934Z,8.00
2022-12-08T20:55:05.867Z,9.10
2022-12-08T20:57:33.235Z,8.95
2022-12-08T21:00:00.039Z,8.70
2022-12-08T21:02:27.487Z,9.40
2022-12-08T21:04:54.426Z,8.10
2022-12-08T21:07:21.031Z,8.48
2022-12-08T21:09:47.494Z,8.65
2022-12-08T21:12:14.311Z,9.13
2022-12-08T21:14:40.974Z,8.18
2022-12-08T21:17:08.247Z,8.37
2022-12-08T21:19:34.820Z,9.05
2022-12-08T21:22:01.534Z,8.70
2022-12-08T21:24:33.693Z,8.80
2022-12-08T21:27:00.815Z,9.82
2022-12-08T21:29:27.416Z,9.37
2022-12-08T21:31:56.199Z,9.48
2022-12-08T21:34:23.360Z,9.10
2022-12-08T21:36:49.857Z,8.48
2022-12-08T21:39:16.386Z,8.82
2022-12-08T21:42:01.283Z,9.27
2022-12-08T21:44:27.797Z,8.40
2022-12-08T21:46:54.272Z,8.77
2022-12-08T21:49:20.847Z,8.82
2022-12-08T21:51:47.497Z,8.95
2022-12-08T21:54:18.675Z,9.40
2022-12-08T21:56:47.267Z,10.60
2022-12-08T21:59:13.867Z,10.00
2022-12-08T22:01:40.512Z,8.50
2022-12-08T22:04:07.411Z,9.65
2022-12-08T22:06:33.925Z,10.33
2022-12-08T22:09:00.688Z,10.07
2022-12-08T22:11:27.341Z,9.18
2022-12-08T22:13:53.884Z,9.40
2022-12-08T22:16:20.360Z,9.10
2022-12-08T22:18:47.080Z,9.47
2022-12-08T22:21:16.359Z,9.20
2022-12-08T22:23:43.729Z,9.18
2022-12-08T22:26:11.106Z,9.43
2022-12-08T22:28:40.215Z,10.63
2022-12-08T22:31:19.326Z,10.73
2022-12-08T22:33:45.658Z,9.30
2022-12-08T22:36:30.464Z,10.32
2022-12-08T22:38:57.089Z,10.20
2022-12-08T22:41:24.064Z,10.43
2022-12-08T22:43:50.809Z,10.37
2022-12-08T22:46:27.321Z,9.60
2022-12-08T22:48:54.738Z,9.98
2022-12-08T22:51:21.453Z,10.30
2022-12-08T22:53:48.290Z,11.35
2022-12-08T22:56:16.008Z,11.23
2022-12-08T22:58:44.093Z,10.70
2022-12-08T23:01:31.392Z,10.55
2022-12-08T23:03:59.021Z,9.98
2022-12-08T23:06:26.977Z,10.88
2022-12-08T23:08:54.336Z,10.63
2022-12-08T23:11:22.919Z,11.45
2022-12-08T23:13:49.523Z,11.80
2022-12-08T23:16:16.173Z,11.50
2022-12-08T23:18:44.967Z,12.73
2022-12-08T23:21:14.292Z,12.17
2022-12-08T23:23:41.094Z,10.65
2022-12-08T23:26:34.854Z,11.80
2022-12-08T23:29:01.739Z,10.35
2022-12-08T23:31:28.299Z,10.10
2022-12-08T23:33:55.161Z,11.73
2022-12-08T23:36:23.099Z,12.85
2022-12-08T23:38:49.594Z,11.00
2022-12-08T23:41:16.126Z,10.43
2022-12-08T23:43:50.826Z,11.02
2022-12-08T23:46:19.657Z,10.10
2022-12-08T23:48:46.431Z,11.55
2022-12-08T23:51:13.358Z,11.00
2022-12-08T23:53:40.282Z,11.20
2022-12-08T23:56:10.168Z,11.85
2022-12-08T23:58:36.757Z,12.23
